Flight Track Log - Related Links

Times and Time Zones

All times are in EDT time to prevent confusion due to time zone crossing. See the JBU185 flight status page for this flight to view local times or setup timezone preferences in your user account.


Time Position Orientation Groundspeed Altitude Reporting Facility
EDT Latitude Longitude Course Direction KTS MPH feet Rate Location/Type
Thu 05:23:14 PM 40.6167 -73.7000 270° West 207 238 2,500  Level New York TRACON
Thu 05:24:14 PM 40.6167 -73.6000 90° East 271 312 4,300 2,100 Climbing New York TRACON
Thu 05:25:00 PM 41.0816 -73.7667 North  Level FlightAware Approximate
Thu 05:25:14 PM 40.6667 -73.5500 37° Northeast 305 351 6,700  Level New York TRACON
Thu 05:26:00 PM 41.1190 -73.8880 304° West  Level FlightAware Approximate
Thu 05:26:14 PM 40.7500 -73.5167 17° North 301 346 9,200  Level New York TRACON
Thu 05:27:00 PM 41.1490 -74.0284 285° West  Level FlightAware Approximate
Thu 05:28:00 PM 41.1667 -74.1704 270° West  Level FlightAware Approximate
Thu 05:28:27 PM 40.9289 -73.6358 333° Northwest 330 380 12,400  Level New York Center
Thu 05:29:29 PM 41.0108 -73.6997 330° Northwest 340 391 15,200 2,508 Climbing New York Center
Thu 05:30:29 PM 41.0842 -73.7578 329° Northwest 340 391 17,500 1,785 Climbing New York Center
Thu 05:31:30 PM 41.1275 -73.8589 300° West 295 339 18,800 958 Climbing New York Center
Thu 05:32:28 PM 41.1414 -73.9669 280° West 306 352 19,400 850 Climbing New York Center
Thu 05:33:30 PM 41.1192 -74.0928 257° West 315 362 20,500 1,082 Climbing New York Center
Thu 05:34:30 PM 41.0917 -74.2428 256° West 343 395 21,600 1,100 Climbing New York Center
Thu 05:35:30 PM 41.0692 -74.3764 257° West 366 421 22,700 966 Climbing New York Center
Thu 05:36:28 PM 41.0458 -74.5181 258° West 382 440 23,500 915 Climbing New York Center
Thu 05:37:28 PM 41.0203 -74.6625 257° West 396 456 24,500 942 Climbing New York Center
Thu 05:38:29 PM 40.9964 -74.8150 258° West 408 470 25,400 843 Climbing New York Center
Thu 05:39:29 PM 40.9706 -74.9619 257° West 413 475 26,200 793 Climbing New York Center
Thu 05:40:30 PM 40.9297 -75.1106 250° West 418 481 27,000 661 Climbing New York Center
Thu 05:41:27 PM 40.9025 -75.2294 253° West 423 487 27,500 864 Climbing New York Center
Thu 05:42:28 PM 40.8669 -75.3975 254° West 428 493 28,700 1,131 Climbing New York Center
Thu 05:43:29 PM 40.8339 -75.5461 254° West 433 498 29,800 1,041 Climbing New York Center
Thu 05:44:29 PM 40.7967 -75.6914 251° West 428 493 30,800 942 Climbing New York Center
Thu 05:45:30 PM 40.7633 -75.8369 253° West 423 487 31,700 605 Climbing New York Center
Thu 05:46:28 PM 40.7281 -75.9767 252° West 412 474 32,000 153 Climbing New York Center
Thu 05:47:28 PM 40.6947 -76.1194 253° West 412 474 32,000  Level New York Center
Thu 05:48:29 PM 40.6797 -76.2658 262° West 412 474 32,000  Level New York Center
Thu 05:49:29 PM 40.6892 -76.4172 275° West 401 461 32,000  Level New York Center
Thu 05:50:28 PM 40.7131 -76.5672 282° West 411 473 32,000  Level New York Center
Thu 05:51:28 PM 40.7350 -76.7142 281° West 411 473 32,000  Level New York Center
Thu 05:52:30 PM 40.7564 -76.8667 281° West 416 479 32,000  Level New York Center
Thu 05:53:30 PM 40.7781 -77.0139 281° West 416 479 32,000  Level New York Center
Thu 05:54:30 PM 40.8014 -77.1614 282° West 416 479 32,000  Level New York Center
Thu 05:56:09 PM 40.8342 -77.4133 280° West 413 475 32,000  Level Cleveland Center
Thu 05:57:09 PM 40.8569 -77.5603 282° West 413 475 32,000  Level Cleveland Center
Thu 05:58:09 PM 40.8753 -77.7133 279° West 413 475 32,000  Level Cleveland Center
Thu 05:59:09 PM 40.9003 -77.8800 281° West 425 489 32,000  Level Cleveland Center
Thu 06:00:09 PM 40.9206 -78.0303 280° West 425 489 32,000  Level Cleveland Center
Thu 06:01:09 PM 40.9383 -78.1808 279° West 425 489 32,000  Level Cleveland Center
Thu 06:02:09 PM 40.9578 -78.3175 281° West 425 489 32,000  Level Cleveland Center
Thu 06:03:09 PM 40.9753 -78.4681 279° West 425 489 32,000  Level Cleveland Center
Thu 06:04:09 PM 40.9925 -78.6189 279° West 425 489 32,000  Level Cleveland Center
Thu 06:05:09 PM 41.0117 -78.7697 280° West 425 489 32,000  Level Cleveland Center
Thu 06:06:09 PM 41.0286 -78.9178 279° West 425 489 32,000  Level Cleveland Center
Thu 06:07:09 PM 41.0475 -79.0689 279° West 425 489 32,000  Level Cleveland Center
Thu 06:08:09 PM 41.0617 -79.2172 277° West 425 489 32,000  Level Cleveland Center
Thu 06:09:09 PM 41.0800 -79.3628 280° West 420 483 32,000  Level Cleveland Center
Thu 06:10:09 PM 41.0983 -79.5142 279° West 415 478 32,000  Level Cleveland Center
Thu 06:11:09 PM 41.1142 -79.6597 278° West 410 472 32,000  Level Cleveland Center
Thu 06:12:09 PM 41.1300 -79.8250 277° West 410 472 32,000  Level Cleveland Center
Thu 06:13:09 PM 41.1433 -79.9572 278° West 410 472 32,000  Level Cleveland Center
Thu 06:14:09 PM 41.1606 -80.1033 279° West 405 466 32,000  Level Cleveland Center
Thu 06:15:09 PM 41.1758 -80.2522 278° West 405 466 32,000  Level Cleveland Center
Thu 06:16:09 PM 41.1906 -80.4175 277° West 412 474 32,000  Level Cleveland Center
Thu 06:17:09 PM 41.2075 -80.5667 279° West 412 474 32,000  Level Cleveland Center
Thu 06:18:09 PM 41.2219 -80.7156 277° West 412 474 32,000  Level Cleveland Center
Thu 06:19:09 PM 41.2364 -80.8619 278° West 404 465 32,000  Level Cleveland Center
Thu 06:20:09 PM 41.2506 -81.0083 277° West 409 471 32,000  Level Cleveland Center
Thu 06:21:09 PM 41.2644 -81.1578 277° West 411 473 32,000  Level Cleveland Center
Thu 06:22:09 PM 41.2781 -81.3069 277° West 405 466 32,000  Level Cleveland Center
Thu 06:23:09 PM 41.2939 -81.4369 279° West 405 466 32,000  Level Cleveland Center
Thu 06:24:09 PM 41.3094 -81.5894 278° West 410 472 32,000  Level Cleveland Center
Thu 06:25:09 PM 41.3244 -81.7389 278° West 410 472 32,000  Level Cleveland Center
Thu 06:26:09 PM 41.3375 -81.8856 277° West 405 466 32,000  Level Cleveland Center
Thu 06:27:09 PM 41.3461 -82.0325 275° West 405 466 32,000  Level Cleveland Center
Thu 06:28:09 PM 41.3606 -82.1989 277° West 405 466 32,000  Level Cleveland Center
Thu 06:29:09 PM 41.3689 -82.3483 274° West 405 466 32,000  Level Cleveland Center
Thu 06:30:09 PM 41.3750 -82.4925 273° West 405 466 32,000  Level Cleveland Center
Thu 06:31:09 PM 41.3831 -82.6256 275° West 405 466 32,000  Level Cleveland Center
Thu 06:32:09 PM 41.3906 -82.7753 274° West 405 466 32,000  Level Cleveland Center
Thu 06:33:09 PM 41.4003 -82.9194 275° West 405 466 32,000  Level Cleveland Center
Thu 06:34:09 PM 41.4075 -83.0694 274° West 405 466 32,000  Level Cleveland Center
Thu 06:35:09 PM 41.4144 -83.2331 273° West 405 466 32,000  Level Cleveland Center
Thu 06:36:09 PM 41.4233 -83.3828 275° West 405 466 32,000 -50 Level Cleveland Center
Thu 06:37:09 PM 41.4300 -83.5328 273° West 405 466 31,900  Descending Cleveland Center
Thu 06:38:09 PM 41.4364 -83.6825 273° West 405 466 32,000 50 Climbing Cleveland Center
Thu 06:39:09 PM 41.4428 -83.8325 273° West 405 466 32,000  Level Cleveland Center
Thu 06:40:09 PM 41.4508 -83.9825 274° West 411 473 32,000  Level Cleveland Center
Thu 06:42:07 PM 41.4658 -84.2742 274° West 412 474 32,000  Level Chicago Center
Thu 06:43:10 PM 41.4736 -84.4250 274° West 409 471 32,000  Level Chicago Center
Thu 06:44:12 PM 41.4789 -84.5781 273° West 413 475 32,000  Level Chicago Center
Thu 06:45:14 PM 41.4836 -84.7306 272° West 413 475 32,000  Level Chicago Center
Thu 06:46:16 PM 41.4900 -84.8811 273° West 408 470 32,000  Level Chicago Center
Thu 06:47:18 PM 41.4958 -85.0628 273° West 407 468 32,000  Level Chicago Center
Thu 06:48:20 PM 41.5003 -85.2147 272° West 407 468 32,000  Level Chicago Center
Thu 06:49:22 PM 41.5050 -85.3700 272° West 411 473 32,000  Level Chicago Center
Thu 06:50:24 PM 41.5103 -85.5256 273° West 409 471 32,000  Level Chicago Center
Thu 06:51:26 PM 41.5150 -85.6783 272° West 408 470 32,000  Level Chicago Center
Thu 06:52:28 PM 41.5189 -85.8308 272° West 411 473 32,000  Level Chicago Center
Thu 06:53:31 PM 41.5233 -85.9847 272° West 415 478 32,000  Level Chicago Center
Thu 06:54:33 PM 41.5267 -86.1358 272° West 412 474 32,000  Level Chicago Center
Thu 06:55:35 PM 41.5297 -86.3186 271° West 413 475 32,000  Level Chicago Center
Thu 06:56:37 PM 41.5328 -86.4753 272° West 418 481 32,000  Level Chicago Center
Thu 06:57:39 PM 41.5339 -86.6278 271° West 420 483 32,000  Level Chicago Center
Thu 06:58:41 PM 41.5358 -86.7800 271° West 412 474 32,000  Level Chicago Center
Thu 06:59:43 PM 41.5372 -86.9331 271° West 413 475 32,000  Level Chicago Center
Thu 07:00:45 PM 41.5392 -87.1200 271° West 421 484 32,000  Level Chicago Center
Thu 07:01:48 PM 41.5414 -87.2719 271° West 417 480 32,000  Level Chicago Center
Thu 07:02:50 PM 41.5431 -87.4239 271° West 413 475 32,000  Level Chicago Center
Thu 07:03:52 PM 41.5439 -87.5739 270° West 409 471 32,000  Level Chicago Center
Thu 07:04:54 PM 41.5447 -87.7231 270° West 406 467 32,000  Level Chicago Center
Thu 07:05:56 PM 41.5458 -87.9003 271° West 404 465 32,000  Level Chicago Center
Thu 07:06:58 PM 41.5458 -88.0467 270° West 405 466 32,000  Level Chicago Center
Thu 07:08:00 PM 41.5461 -88.1922 270° West 405 466 32,000  Level Chicago Center
Thu 07:09:02 PM 41.5464 -88.3408 270° West 406 467 32,000  Level Chicago Center
Thu 07:10:04 PM 41.5469 -88.5178 270° West 402 463 32,000  Level Chicago Center
Thu 07:11:06 PM 41.5478 -88.6664 270° West 402 463 32,000  Level Chicago Center
Thu 07:12:08 PM 41.5469 -88.8136 270° West 402 463 32,000  Level Chicago Center
Thu 07:13:10 PM 41.5481 -88.9619 271° West 401 461 32,000  Level Chicago Center
Thu 07:14:12 PM 41.5475 -89.1119 270° West 406 467 32,000  Level Chicago Center
Thu 07:15:14 PM 41.5489 -89.2944 271° West 411 473 32,000  Level Chicago Center
Thu 07:16:16 PM 41.5483 -89.4447 270° West 410 472 32,000  Level Chicago Center
Thu 07:17:18 PM 41.5478 -89.5797 270° West 404 465 32,000  Level Chicago Center
Thu 07:18:20 PM 41.5461 -89.7589 269° West 403 464 32,000 -48 Level Chicago Center
Thu 07:19:23 PM 41.5456 -89.9072 270° West 403 464 31,900  Descending Chicago Center
Thu 07:20:24 PM 41.5439 -90.0572 269° West 406 467 32,000 48 Climbing Chicago Center
Thu 07:21:27 PM 41.5431 -90.2083 270° West 408 470 32,000  Level Chicago Center
Thu 07:22:29 PM 41.5408 -90.3650 269° West 422 486 32,000  Level Chicago Center
Thu 07:23:31 PM 41.5378 -90.5208 269° West 423 487 32,000  Level Chicago Center
Thu 07:24:33 PM 41.5367 -90.6772 270° West 414 476 32,000  Level Chicago Center
Thu 07:25:35 PM 41.5336 -90.8600 269° West 413 475 32,000  Level Chicago Center
Thu 07:26:37 PM 41.5311 -91.0108 269° West 409 471 32,000  Level Chicago Center
Thu 07:27:39 PM 41.5286 -91.1592 269° West 403 464 32,000  Level Chicago Center
Thu 07:28:41 PM 41.5250 -91.3083 268° West 402 463 32,000  Level Chicago Center
Thu 07:29:43 PM 41.5228 -91.4550 269° West 398 458 32,000  Level Chicago Center
Thu 07:30:45 PM 41.5181 -91.6294 268° West 396 456 32,000  Level Chicago Center
Thu 07:31:47 PM 41.5036 -91.7728 262° West 392 451 32,000  Level Chicago Center
Thu 07:32:49 PM 41.4903 -91.9133 263° West 386 444 32,000  Level Chicago Center
Thu 07:33:51 PM 41.4769 -92.0547 263° West 387 445 32,000  Level Chicago Center
Thu 07:34:53 PM 41.4619 -92.1967 262° West 388 447 32,000  Level Chicago Center
Thu 07:35:55 PM 41.4481 -92.3394 263° West 389 448 32,000  Level Chicago Center
Thu 07:37:59 PM 41.4161 -92.6600 263° West 394 453 32,000  Level Chicago Center
Thu 07:39:01 PM 41.4019 -92.8042 263° West 396 456 32,000  Level Chicago Center
Thu 07:40:03 PM 41.3856 -92.9472 261° West 395 455 32,000  Level Chicago Center
Thu 07:41:05 PM 41.3703 -93.0950 262° West 401 461 32,000 -48 Level Chicago Center
Thu 07:42:07 PM 41.3517 -93.2747 262° West 408 470 31,900  Descending Chicago Center
Thu 07:43:09 PM 41.3364 -93.4228 262° West 407 468 32,000 48 Climbing Chicago Center
Thu 07:44:11 PM 41.3192 -93.5733 261° West 412 474 32,000  Level Chicago Center
Thu 07:45:13 PM 41.3011 -93.7250 261° West 417 480 32,000  Level Chicago Center
Thu 07:46:15 PM 41.2847 -93.8728 262° West 413 475 32,000  Level Chicago Center
Thu 07:47:17 PM 41.2650 -94.0511 262° West 411 473 32,000  Level Chicago Center
Thu 07:48:19 PM 41.2472 -94.2039 261° West 417 480 32,000  Level Chicago Center
Thu 07:49:21 PM 41.2281 -94.3564 261° West 419 482 32,000  Level Chicago Center
Thu 07:50:23 PM 41.2089 -94.5097 261° West 422 486 32,000  Level Chicago Center
Thu 07:51:36 PM 41.1911 -94.6897 263° West 421 484 32,000  Level Minneapolis Center
Thu 07:52:38 PM 41.1725 -94.8447 261° West 423 487 32,000  Level Minneapolis Center
Thu 07:53:40 PM 41.1494 -95.0286 261° West 423 487 32,000  Level Minneapolis Center
Thu 07:54:41 PM 41.1308 -95.1800 261° West 419 482 32,000  Level Minneapolis Center
Thu 07:55:43 PM 41.1117 -95.3311 260° West 416 479 32,000  Level Minneapolis Center
Thu 07:56:45 PM 41.0922 -95.4825 260° West 415 478 32,000  Level Minneapolis Center
Thu 07:57:47 PM 41.0731 -95.6336 260° West 415 478 32,000  Level Minneapolis Center
Thu 07:58:49 PM 41.0528 -95.7822 260° West 410 472 32,000  Level Minneapolis Center
Thu 07:59:50 PM 41.0339 -95.9292 260° West 403 464 32,000 -49 Level Minneapolis Center
Thu 08:00:52 PM 41.0147 -96.0750 260° West 400 460 31,900 -48 Descending Minneapolis Center
Thu 08:01:54 PM 40.9958 -96.2208 260° West 399 459 31,900 48 Level Minneapolis Center
Thu 08:02:56 PM 40.9756 -96.3694 260° West 405 466 32,000 48 Climbing Minneapolis Center
Thu 08:03:58 PM 40.9506 -96.5514 260° West 414 476 32,000  Level Minneapolis Center
Thu 08:05:00 PM 40.9294 -96.7044 260° West 419 482 32,000  Level Minneapolis Center
Thu 08:06:01 PM 40.9069 -96.8558 259° West 420 483 32,000  Level Minneapolis Center
Thu 08:07:03 PM 40.8794 -97.0050 256° West 417 480 32,000  Level Minneapolis Center
Thu 08:08:05 PM 40.8533 -97.1497 257° West 410 472 32,000  Level Minneapolis Center
Thu 08:09:07 PM 40.8289 -97.2964 258° West 409 471 32,000  Level Minneapolis Center
Thu 08:10:09 PM 40.8028 -97.4461 257° West 404 465 32,000  Level Minneapolis Center
Thu 08:11:11 PM 40.7769 -97.5911 257° West 404 465 32,000  Level Minneapolis Center
Thu 08:12:12 PM 40.7475 -97.7644 257° West 403 464 32,000 178 Level Minneapolis Center
Thu 08:13:26 PM 40.7211 -97.9078 256° West 402 463 32,400 750 Climbing Minneapolis Center
Thu 08:14:28 PM 40.6903 -98.0761 256° West 395 455 33,700 774 Climbing Minneapolis Center
Thu 08:15:30 PM 40.6650 -98.2169 257° West 393 452 34,000 145 Climbing Minneapolis Center
Thu 08:16:32 PM 40.6397 -98.3603 257° West 397 457 34,000  Level Minneapolis Center
Thu 08:17:34 PM 40.6122 -98.5078 256° West 407 468 34,000  Level Minneapolis Center
Thu 08:18:36 PM 40.5839 -98.6556 256° West 412 474 34,000  Level Minneapolis Center
Thu 08:19:37 PM 40.5564 -98.8028 256° West 412 474 34,000  Level Minneapolis Center
Thu 08:20:39 PM 40.5294 -98.9486 256° West 410 472 34,000  Level Minneapolis Center
Thu 08:21:41 PM 40.5006 -99.0953 256° West 411 473 34,000  Level Minneapolis Center
Thu 08:22:29 PM 40.4789 -99.2136 257° West 412 474 34,000  Level Denver Center
Thu 08:23:31 PM 40.4442 -99.3878 255° West 410 472 34,000  Level Denver Center
Thu 08:24:33 PM 40.4164 -99.5356 256° West 414 476 34,000  Level Denver Center
Thu 08:25:34 PM 40.3872 -99.6828 255° West 417 480 34,000  Level Denver Center
Thu 08:26:36 PM 40.3586 -99.8311 256° West 418 481 34,000  Level Denver Center
Thu 08:27:38 PM 40.3253 -99.9944 255° West 421 484 34,000  Level Denver Center
Thu 08:28:40 PM 40.2972 -100.1331 255° West 414 476 34,000  Level Denver Center
Thu 08:29:42 PM 40.2683 -100.2742 255° West 417 480 34,000  Level Denver Center
Thu 08:30:43 PM 40.2356 -100.4369 255° West 413 475 34,000  Level Denver Center
Thu 08:31:45 PM 40.2072 -100.5775 255° West 416 479 34,000  Level Denver Center
Thu 08:32:47 PM 40.1875 -100.7442 261° West 415 478 34,000  Level Denver Center
Thu 08:33:49 PM 40.1708 -100.8867 261° West 413 475 34,000  Level Denver Center
Thu 08:34:50 PM 40.1550 -101.0300 262° West 415 478 34,000  Level Denver Center
Thu 08:35:52 PM 40.1308 -101.1961 259° West 419 482 34,000  Level Denver Center
Thu 08:36:54 PM 40.0831 -101.3289 245° Southwest 423 487 34,000  Level Denver Center
Thu 08:37:56 PM 40.0303 -101.4847 246° West 418 481 34,000  Level Denver Center
Thu 08:38:57 PM 39.9858 -101.6164 246° West 415 478 34,000  Level Denver Center
Thu 08:39:59 PM 39.9350 -101.7711 247° West 415 478 34,000  Level Denver Center
Thu 08:41:01 PM 39.8889 -101.9056 246° West 422 486 34,000 48 Level Denver Center
Thu 08:42:03 PM 39.8425 -102.0381 246° West 420 483 34,100  Climbing Denver Center
Thu 08:43:04 PM 39.7886 -102.1928 246° West 420 483 34,000 -49 Descending Denver Center
Thu 08:44:06 PM 39.7431 -102.3242 246° West 417 480 34,000  Level Denver Center
Thu 08:45:08 PM 39.6903 -102.4772 246° West 417 480 34,000  Level Denver Center
Thu 08:46:09 PM 39.6433 -102.6072 245° Southwest 416 479 34,000  Level Denver Center
Thu 08:47:11 PM 39.5936 -102.7508 246° West 417 480 34,000  Level Denver Center
Thu 08:48:13 PM 39.5453 -102.8881 245° Southwest 416 479 34,000  Level Denver Center
Thu 08:49:15 PM 39.4969 -103.0244 245° Southwest 414 476 34,000  Level Denver Center
Thu 08:50:16 PM 39.4481 -103.1611 245° Southwest 414 476 34,000  Level Denver Center
Thu 08:51:18 PM 39.3983 -103.2969 245° Southwest 415 478 34,000  Level Denver Center
Thu 08:52:20 PM 39.3419 -103.4539 245° Southwest 409 471 34,000  Level Denver Center
Thu 08:53:21 PM 39.2933 -103.5886 245° Southwest 409 471 34,000  Level Denver Center
Thu 08:54:23 PM 39.2433 -103.7231 244° Southwest 410 472 34,000  Level Denver Center
Thu 08:55:25 PM 39.1961 -103.8567 246° West 405 466 34,000  Level Denver Center
Thu 08:56:26 PM 39.1472 -103.9881 244° Southwest 403 464 34,000  Level Denver Center
Thu 08:57:28 PM 39.0981 -104.1194 244° Southwest 402 463 34,000  Level Denver Center
Thu 08:58:30 PM 39.0497 -104.2503 245° Southwest 400 460 34,000  Level Denver Center
Thu 08:59:31 PM 39.0017 -104.3803 245° Southwest 398 458 34,000  Level Denver Center
Thu 09:00:33 PM 38.9517 -104.5133 244° Southwest 408 470 34,000  Level Denver Center
Thu 09:01:35 PM 38.9028 -104.6431 244° Southwest 400 460 34,000  Level Denver Center
Thu 09:02:37 PM 38.8533 -104.7733 244° Southwest 401 461 34,000  Level Denver Center
Thu 09:03:38 PM 38.8042 -104.9031 244° Southwest 399 459 34,000  Level Denver Center
Thu 09:04:40 PM 38.7458 -105.0572 244° Southwest 404 465 34,000  Level Denver Center
Thu 09:05:42 PM 38.6947 -105.1881 243° Southwest 406 467 34,000  Level Denver Center
Thu 09:06:44 PM 38.6447 -105.3206 244° Southwest 407 468 34,000  Level Denver Center
Thu 09:07:45 PM 38.5936 -105.4519 244° Southwest 409 471 34,000  Level Denver Center
Thu 09:08:47 PM 38.5436 -105.5819 244° Southwest 405 466 34,000  Level Denver Center
Thu 09:09:49 PM 38.4922 -105.7122 243° Southwest 406 467 34,000  Level Denver Center
Thu 09:10:51 PM 38.4411 -105.8444 244° Southwest 409 471 34,000  Level Denver Center
Thu 09:11:53 PM 38.3842 -105.9894 243° Southwest 409 471 34,000  Level Denver Center
Thu 09:12:54 PM 38.3350 -106.1136 243° Southwest 410 472 34,000  Level Denver Center
Thu 09:13:56 PM 38.2839 -106.2408 243° Southwest 416 479 34,000  Level Denver Center
Thu 09:14:58 PM 38.2322 -106.3714 243° Southwest 414 476 34,000  Level Denver Center
Thu 09:16:00 PM 38.1703 -106.5261 243° Southwest 417 480 34,000  Level Denver Center
Thu 09:17:02 PM 38.1200 -106.6525 243° Southwest 418 481 34,000  Level Denver Center
Thu 09:18:04 PM 38.0606 -106.7997 243° Southwest 419 482 34,000  Level Denver Center
Thu 09:19:05 PM 38.0097 -106.9253 243° Southwest 418 481 34,000  Level Denver Center
Thu 09:20:07 PM 37.9581 -107.0511 243° Southwest 417 480 34,000  Level Denver Center
Thu 09:21:09 PM 37.9017 -107.1900 243° Southwest 420 483 34,000  Level Denver Center
Thu 09:22:11 PM 37.8406 -107.3378 242° Southwest 423 487 34,000  Level Denver Center
Thu 09:23:13 PM 37.7894 -107.4625 243° Southwest 418 481 34,000  Level Denver Center
Thu 09:25:17 PM 37.6750 -107.7383 242° Southwest 426 490 34,000  Level Denver Center
Thu 09:26:19 PM 37.6131 -107.8878 242° Southwest 431 496 34,000  Level Denver Center
Thu 09:27:21 PM 37.5603 -108.0164 243° Southwest 433 498 34,000  Level Denver Center
Thu 09:28:23 PM 37.4983 -108.1633 242° Southwest 426 490 34,000  Level Denver Center
Thu 09:29:25 PM 37.4433 -108.2900 241° Southwest 431 496 34,000  Level Denver Center
Thu 09:30:27 PM 37.3800 -108.4403 242° Southwest 435 501 34,000  Level Denver Center
Thu 09:31:29 PM 37.3261 -108.5664 242° Southwest 431 496 34,000  Level Denver Center
Thu 09:32:31 PM 37.2714 -108.6950 242° Southwest 434 499 34,000  Level Denver Center
Thu 09:33:33 PM 37.2075 -108.8408 241° Southwest 429 494 34,000  Level Denver Center
Thu 09:34:35 PM 37.1531 -108.9669 242° Southwest 429 494 34,000  Level Denver Center
Thu 09:35:37 PM 37.0900 -109.1122 241° Southwest 427 491 34,000  Level Denver Center
Thu 09:36:39 PM 37.0358 -109.2375 242° Southwest 428 493 34,000  Level Denver Center
Thu 09:37:41 PM 36.9722 -109.3825 241° Southwest 428 493 34,000  Level Denver Center
Thu 09:39:18 PM 36.8803 -109.5878 241° Southwest 433 498 34,000  Level Los Angeles Center
Thu 09:39:57 PM 36.8442 -109.6736 242° Southwest 427 491 34,000  Level Denver Center
Thu 09:40:59 PM 36.7797 -109.8194 241° Southwest 430 495 34,000  Level Denver Center
Thu 09:42:01 PM 36.7242 -109.9444 241° Southwest 431 496 34,000  Level Denver Center
Thu 09:43:04 PM 36.6592 -110.0903 241° Southwest 431 496 34,000  Level Denver Center
Thu 09:44:06 PM 36.6047 -110.2125 241° Southwest 428 493 34,000  Level Denver Center
Thu 09:45:08 PM 36.5464 -110.3417 241° Southwest 428 493 34,000  Level Denver Center
Thu 09:46:10 PM 36.4931 -110.4739 243° Southwest 430 495 34,000  Level Denver Center
Thu 09:47:12 PM 36.4300 -110.6333 244° Southwest 429 494 34,000 48 Level Denver Center
Thu 09:48:14 PM 36.3733 -110.7689 243° Southwest 436 502 34,100  Climbing Denver Center
Thu 09:49:16 PM 36.3169 -110.9028 242° Southwest 437 503 34,000 -48 Descending Denver Center
Thu 09:50:18 PM 36.2639 -111.0344 243° Southwest 433 498 34,000  Level Denver Center
Thu 09:51:20 PM 36.2083 -111.1664 242° Southwest 432 497 34,000  Level Denver Center
Thu 09:52:22 PM 36.1542 -111.3003 243° Southwest 434 499 34,000  Level Denver Center
Thu 09:53:24 PM 36.0967 -111.4333 242° Southwest 438 504 34,000  Level Denver Center
Thu 09:54:26 PM 36.0311 -111.5925 243° Southwest 435 501 34,000  Level Denver Center
Thu 09:55:28 PM 35.9753 -111.7233 242° Southwest 432 497 34,000  Level Denver Center
Thu 09:56:30 PM 35.9208 -111.8533 243° Southwest 428 493 34,000  Level Denver Center
Thu 09:56:50 PM 35.8997 -111.9025 242° Southwest 427 491 34,000  Level Los Angeles Center
Thu 09:57:52 PM 35.8450 -112.0319 242° Southwest 428 493 34,000  Level Los Angeles Center
Thu 09:58:53 PM 35.7903 -112.1594 242° Southwest 426 490 34,000  Level Los Angeles Center
Thu 09:59:55 PM 35.7364 -112.2850 242° Southwest 420 483 34,000  Level Los Angeles Center
Thu 10:00:57 PM 35.6822 -112.4108 242° Southwest 420 483 34,000  Level Los Angeles Center
Thu 10:01:59 PM 35.6169 -112.5611 242° Southwest 419 482 34,000  Level Los Angeles Center
Thu 10:03:01 PM 35.5703 -112.6700 242° Southwest 413 475 34,000  Level Los Angeles Center
Thu 10:04:02 PM 35.5047 -112.8211 242° Southwest 416 479 34,000  Level Los Angeles Center
Thu 10:05:04 PM 35.4503 -112.9472 242° Southwest 417 480 34,000  Level Los Angeles Center
Thu 10:06:06 PM 35.3958 -113.0692 241° Southwest 418 481 34,000  Level Los Angeles Center
Thu 10:07:07 PM 35.3517 -113.1694 242° Southwest 417 480 34,000  Level Los Angeles Center
Thu 10:08:10 PM 35.2831 -113.3247 242° Southwest 418 481 34,000  Level Los Angeles Center
Thu 10:09:11 PM 35.2275 -113.4492 241° Southwest 420 483 34,000  Level Los Angeles Center
Thu 10:10:13 PM 35.1728 -113.5725 242° Southwest 417 480 34,000  Level Los Angeles Center
Thu 10:11:15 PM 35.1297 -113.6706 242° Southwest 413 475 34,000  Level Los Angeles Center
Thu 10:12:17 PM 35.0531 -113.8433 242° Southwest 415 478 34,000  Level Los Angeles Center
Thu 10:13:19 PM 34.9961 -113.9667 241° Southwest 416 479 34,000 -146 Level Los Angeles Center
Thu 10:14:20 PM 34.9408 -114.0892 241° Southwest 412 474 33,700 -634 Descending Los Angeles Center
Thu 10:15:22 PM 34.8842 -114.2139 241° Southwest 417 480 32,700 -968 Descending Los Angeles Center
Thu 10:16:24 PM 34.8261 -114.3406 241° Southwest 426 490 31,700 -1,306 Descending Los Angeles Center
Thu 10:17:26 PM 34.7681 -114.4597 239° Southwest 412 474 30,000 -823 Descending Los Angeles Center
Thu 10:18:28 PM 34.6672 -114.5847 226° Southwest 431 496 30,000  Level Los Angeles Center
Thu 10:19:29 PM 34.5939 -114.6683 223° Southwest 430 495 30,000 -488 Level Los Angeles Center
Thu 10:20:31 PM 34.4908 -114.7861 223° Southwest 425 489 29,000 -968 Descending Los Angeles Center
Thu 10:21:33 PM 34.4053 -114.8836 223° Southwest 424 488 28,000 -480 Descending Los Angeles Center
Thu 10:22:36 PM 34.3214 -114.9783 223° Southwest 415 478 28,000  Level Los Angeles Center
Thu 10:23:36 PM 34.2375 -115.0722 223° Southwest 412 474 28,000  Level Los Angeles Center
Thu 10:24:38 PM 34.1539 -115.1678 223° Southwest 413 475 28,000  Level Los Angeles Center
Thu 10:25:40 PM 34.0694 -115.2614 223° Southwest 414 476 28,000 -48 Level Los Angeles Center
Thu 10:26:42 PM 33.9700 -115.3725 223° Southwest 408 470 27,900  Descending Los Angeles Center
Thu 10:27:43 PM 33.8856 -115.4667 223° Southwest 413 475 28,000  Climbing Los Angeles Center
Thu 10:28:45 PM 33.8028 -115.5586 223° Southwest 408 470 27,900 -387 Descending Los Angeles Center
Thu 10:29:47 PM 33.7203 -115.6508 223° Southwest 405 466 27,200 -823 Descending Los Angeles Center
Thu 10:30:49 PM 33.6386 -115.7425 223° Southwest 404 465 26,200 -1,161 Descending Los Angeles Center
Thu 10:31:51 PM 33.5708 -115.8464 232° Southwest 396 456 24,800 -1,122 Descending Los Angeles Center
Thu 10:32:52 PM 33.5053 -115.9486 232° Southwest 389 448 23,900 -1,707 Descending Los Angeles Center
Thu 10:33:54 PM 33.4011 -116.0553 221° Southwest 409 471 21,300 -2,226 Descending Los Angeles Center
Thu 10:34:56 PM 33.3153 -116.1400 220° Southwest 404 465 19,300 -1,935 Descending Los Angeles Center
Thu 10:35:58 PM 33.2347 -116.2203 220° Southwest 383 441 17,300 -1,839 Descending Los Angeles Center
Thu 10:37:00 PM 33.1556 -116.2975 219° Southwest 374 430 15,500 -1,756 Descending Los Angeles Center
Thu 10:38:01 PM 33.0786 -116.3725 219° Southwest 364 419 13,700 -1,756 Descending Los Angeles Center
Thu 10:39:03 PM 33.0050 -116.4417 218° Southwest 346 398 11,900 -1,403 Descending Los Angeles Center
Thu 10:40:05 PM 32.9083 -116.4989 206° Southwest 326 375 10,800 -968 Descending Los Angeles Center
Thu 10:41:07 PM 32.8400 -116.5436 209° Southwest 309 356 9,900 -1,210 Descending Los Angeles Center
Thu 10:42:09 PM 32.8008 -116.6261 241° Southwest 293 337 8,300 -1,463 Descending Los Angeles Center
Thu 10:43:10 PM 32.7664 -116.7067 243° Southwest 280 322 6,900 -1,171 Descending Los Angeles Center
Thu 10:44:12 PM 32.7342 -116.7847 244° Southwest 270 311 5,900 -1,113 Descending Los Angeles Center
Thu 10:45:14 PM 32.6989 -116.8689 244° Southwest 245 282 4,600 -939 Descending Los Angeles Center
Thu 10:46:07 PM 32.6667 -116.9333 239° Southwest 212 244 4,100 -690 Descending Southern California TRACON
Thu 10:47:07 PM 32.6833 -116.9833 292° West 193 222 3,300 -850 Descending Southern California TRACON
Thu 10:48:07 PM 32.7000 -117.0500 287° West 186 214 2,400 -950 Descending Southern California TRACON
Thu 10:49:07 PM 32.7167 -117.1000 292° West 155 178 1,400 -843 Descending Southern California TRACON
Thu 10:50:08 PM 32.7167 -117.1500 270° West 141 162 700 -632 Descending Southern California TRACON
Thu 10:50:23 PM 32.7244 -117.1497 North 148 170 600 22,831 Descending Los Angeles Center
Thu 10:51:25 PM 32.7356 -117.1944 286° West 143 165 30,000 28,452 Climbing Los Angeles Center

Login

Don't have an account? Register now (free) for customized features, flight alerts, and more!